Time;durP1;ratioP1;P1;durP2;ratioP2;P2;SDS_P1;SDS_P2;PMS_P1;PMS_P2;Temp;Humidity;BMP_temperature;BMP_pressure;BME280_temperature;BME280_humidity;BME280_pressure;Samples;Min_cycle;Max_cycle;Signal;HPM_P1;HPM_P2
2022/04/30 00:00:18;;;;;;;1.83;1.48;;;14.50;52.00;;;;;;4854272;29;20076;-90
2022/04/30 00:02:44;;;;;;;1.52;1.27;;;14.50;52.00;;;;;;4844221;29;20128;-89
2022/04/30 00:05:10;;;;;;;1.42;1.30;;;14.50;52.10;;;;;;4842234;29;20072;-90
2022/04/30 00:07:36;;;;;;;2.42;1.33;;;14.50;52.60;;;;;;4834874;29;20089;-89
2022/04/30 00:10:03;;;;;;;1.45;1.35;;;14.50;52.10;;;;;;4833865;29;20187;-88
2022/04/30 00:12:31;;;;;;;1.92;1.40;;;14.40;52.00;;;;;;4802115;29;20096;-88
2022/04/30 00:14:59;;;;;;;1.77;1.23;;;14.50;52.10;;;;;;4840626;29;20068;-89
2022/04/30 00:17:25;;;;;;;2.70;1.10;;;14.40;52.10;;;;;;4835421;29;20046;-89
2022/04/30 00:19:51;;;;;;;1.55;1.40;;;14.40;52.10;;;;;;4834521;29;20533;-89
2022/04/30 00:22:17;;;;;;;1.65;1.30;;;14.40;52.10;;;;;;4836319;29;20049;-88
2022/04/30 00:24:43;;;;;;;1.50;1.15;;;14.40;52.00;;;;;;4835923;29;20072;-87
2022/04/30 00:27:10;;;;;;;1.48;1.20;;;14.40;52.10;;;;;;4835493;29;20030;-88
2022/04/30 00:29:36;;;;;;;1.95;1.30;;;14.30;52.10;;;;;;4820903;29;20034;-87
2022/04/30 00:32:04;;;;;;;1.20;1.10;;;14.30;52.20;;;;;;4824489;29;20398;-88
2022/04/30 00:34:31;;;;;;;1.20;1.10;;;14.30;52.20;;;;;;4808172;29;20065;-88
2022/04/30 00:37:02;;;;;;;1.52;1.42;;;14.30;52.20;;;;;;4837165;29;20037;-88
2022/04/30 00:39:32;;;;;;;1.55;1.30;;;14.30;52.20;;;;;;4835376;29;20046;-87
2022/04/30 00:41:59;;;;;;;1.52;1.42;;;14.30;52.30;;;;;;4825485;29;20037;-91
2022/04/30 00:44:26;;;;;;;1.15;1.05;;;14.20;52.30;;;;;;4835131;29;20046;-89
2022/04/30 00:46:52;;;;;;;0.95;0.93;;;14.20;52.30;;;;;;4844578;29;20050;-89
2022/04/30 00:49:18;;;;;;;1.98;1.27;;;14.20;52.30;;;;;;4847288;29;20041;-88
2022/04/30 00:51:45;;;;;;;3.65;1.58;;;14.20;52.30;;;;;;4849877;29;20050;-85
2022/04/30 00:54:13;;;;;;;1.48;1.38;;;14.20;52.40;;;;;;4840844;29;20046;-90
2022/04/30 00:56:47;;;;;;;2.13;1.23;;;14.20;52.30;;;;;;4848030;29;20054;-89
2022/04/30 00:59:18;;;;;;;2.25;1.48;;;14.20;52.30;;;;;;4846884;29;20624;-90
2022/04/30 01:01:46;;;;;;;1.42;1.33;;;14.10;52.20;;;;;;4839246;29;20046;-87
2022/04/30 01:04:16;;;;;;;2.10;1.48;;;14.10;52.20;;;;;;4855299;29;20034;-90
2022/04/30 01:06:51;;;;;;;1.17;1.08;;;14.10;52.30;;;;;;4852295;29;20099;-86
2022/04/30 01:09:23;;;;;;;1.50;1.10;;;14.10;52.30;;;;;;4829564;29;20147;-92
2022/04/30 01:11:56;;;;;;;1.77;1.50;;;14.10;52.30;;;;;;4821819;29;20053;-90
2022/04/30 01:14:25;;;;;;;1.85;1.42;;;14.10;52.20;;;;;;4849612;29;20042;-90
2022/04/30 01:16:52;;;;;;;1.35;1.20;;;14.00;52.20;;;;;;4842371;29;20045;-92
2022/04/30 01:19:20;;;;;;;1.70;1.38;;;14.00;52.30;;;;;;4842430;29;20041;-91
2022/04/30 01:21:52;;;;;;;2.25;1.30;;;14.00;52.30;;;;;;4838922;29;20042;-92
2022/04/30 01:24:27;;;;;;;2.58;1.48;;;14.00;52.40;;;;;;4824614;29;20046;-92
2022/04/30 01:26:54;;;;;;;1.58;1.30;;;14.00;52.40;;;;;;4818089;29;20133;-93
2022/04/30 01:29:21;;;;;;;1.98;1.33;;;14.00;52.30;;;;;;4821111;29;20037;-89
2022/04/30 01:37:23;;;;;;;3.25;1.20;;;14.00;52.20;;;;;;4839693;29;20085;-92
2022/04/30 01:39:57;;;;;;;1.30;1.20;;;14.00;52.20;;;;;;4843591;29;20087;-92
2022/04/30 01:42:24;;;;;;;1.23;1.13;;;14.00;52.10;;;;;;4829596;29;20061;-92
2022/04/30 01:44:53;;;;;;;1.75;1.23;;;14.00;52.70;;;;;;4816187;29;20120;-89
2022/04/30 01:47:19;;;;;;;1.90;1.30;;;14.00;52.10;;;;;;4830321;29;20097;-90
2022/04/30 01:49:45;;;;;;;1.33;1.20;;;14.00;52.00;;;;;;4834612;29;20034;-88
2022/04/30 01:52:15;;;;;;;1.20;1.10;;;14.00;51.90;;;;;;4833940;29;20038;-89
2022/04/30 01:54:42;;;;;;;3.78;1.30;;;13.90;51.90;;;;;;4847641;29;20042;-85
2022/04/30 01:57:08;;;;;;;2.13;1.48;;;13.90;51.90;;;;;;4838186;29;20054;-89
2022/04/30 01:59:35;;;;;;;2.90;1.13;;;13.90;51.90;;;;;;4834051;29;20037;-89
2022/04/30 02:02:06;;;;;;;1.48;1.00;;;13.90;52.00;;;;;;4824957;29;20045;-90
2022/04/30 02:04:35;;;;;;;1.20;1.10;;;13.90;52.10;;;;;;4809531;29;20057;-91
2022/04/30 02:07:02;;;;;;;1.55;1.45;;;13.90;52.20;;;;;;4835504;29;20041;-91
2022/04/30 02:09:31;;;;;;;2.65;1.40;;;13.90;52.20;;;;;;4838190;29;20056;-93
2022/04/30 02:11:59;;;;;;;2.47;1.50;;;13.90;52.30;;;;;;4817562;29;20048;-88
2022/04/30 02:14:30;;;;;;;1.80;1.60;;;13.80;52.20;;;;;;4837454;29;20041;-89
2022/04/30 02:17:00;;;;;;;2.10;1.40;;;13.90;52.30;;;;;;4831595;29;20085;-90
2022/04/30 02:19:28;;;;;;;1.80;1.50;;;13.90;52.40;;;;;;4847839;29;20038;-84
2022/04/30 02:21:58;;;;;;;1.88;1.60;;;13.90;52.40;;;;;;4831845;29;20054;-88
2022/04/30 02:24:28;;;;;;;2.30;1.55;;;13.90;52.50;;;;;;4835720;29;20119;-88
2022/04/30 02:26:54;;;;;;;2.15;1.40;;;13.90;52.50;;;;;;4841399;29;20030;-90
2022/04/30 02:29:20;;;;;;;1.98;1.73;;;13.90;52.50;;;;;;4829397;29;20049;-87
2022/04/30 02:31:47;;;;;;;2.60;1.77;;;13.90;52.50;;;;;;4827366;29;20228;-89
2022/04/30 02:34:13;;;;;;;1.85;1.27;;;13.80;52.50;;;;;;4816684;29;20027;-89
2022/04/30 02:36:39;;;;;;;1.90;1.77;;;13.90;52.50;;;;;;4834850;29;20079;-89
2022/04/30 02:39:05;;;;;;;2.42;1.42;;;13.80;52.40;;;;;;4838229;29;20141;-90
2022/04/30 02:41:31;;;;;;;2.67;1.55;;;13.90;52.60;;;;;;4833558;29;20162;-90
2022/04/30 02:43:59;;;;;;;1.80;1.58;;;13.90;52.50;;;;;;4831330;29;20129;-90
2022/04/30 02:46:25;;;;;;;1.70;1.40;;;13.90;52.50;;;;;;4822037;29;20038;-89
2022/04/30 02:48:51;;;;;;;2.50;1.30;;;13.90;52.60;;;;;;4833079;29;20045;-88
2022/04/30 02:51:17;;;;;;;2.13;1.80;;;13.90;52.60;;;;;;4830550;29;20061;-87
2022/04/30 02:53:44;;;;;;;1.48;1.30;;;14.00;52.60;;;;;;4815108;29;20037;-92
2022/04/30 02:56:10;;;;;;;3.10;1.67;;;14.00;52.50;;;;;;4816497;29;20089;-90
2022/04/30 03:01:21;;;;;;;1.58;1.48;;;14.00;52.40;;;;;;4821560;29;20057;-90
2022/04/30 03:04:07;;;;;;;1.70;1.30;;;14.00;52.30;;;;;;4826690;29;20049;-92
2022/04/30 03:06:37;;;;;;;1.52;1.30;;;14.00;52.20;;;;;;4832255;29;20072;-91
2022/04/30 03:09:04;;;;;;;1.45;1.23;;;14.10;52.20;;;;;;4836013;29;20062;-90
2022/04/30 03:11:31;;;;;;;1.77;1.00;;;14.20;52.20;;;;;;4832118;29;20146;-91
2022/04/30 03:13:57;;;;;;;1.08;1.08;;;14.20;52.00;;;;;;4831633;29;20054;-89
2022/04/30 03:21:53;;;;;;;1.30;0.97;;;14.10;51.60;;;;;;4817494;29;20077;-91
2022/04/30 03:24:20;;;;;;;2.08;1.10;;;14.10;51.40;;;;;;4831204;29;20034;-91
2022/04/30 03:26:47;;;;;;;2.15;1.10;;;14.10;51.30;;;;;;4821082;29;20041;-89
2022/04/30 03:29:15;;;;;;;1.08;1.05;;;14.10;51.20;;;;;;4829880;29;20046;-90
2022/04/30 03:31:42;;;;;;;3.70;1.27;;;14.10;51.20;;;;;;4830860;29;20045;-90
2022/04/30 03:34:15;;;;;;;1.73;1.13;;;14.00;51.20;;;;;;4816987;29;20034;-91
2022/04/30 03:36:42;;;;;;;5.47;0.90;;;14.00;51.20;;;;;;4830726;29;20125;-90
2022/04/30 03:39:09;;;;;;;0.90;0.90;;;14.00;51.30;;;;;;4825229;29;20108;-91
2022/04/30 03:41:36;;;;;;;0.73;0.73;;;14.10;51.30;;;;;;4836977;29;20505;-91
2022/04/30 03:44:02;;;;;;;1.90;1.15;;;14.00;51.20;;;;;;4827586;29;20054;-93
2022/04/30 03:46:28;;;;;;;1.02;1.02;;;14.00;51.20;;;;;;4831745;29;20121;-88
2022/04/30 03:48:56;;;;;;;0.88;0.88;;;14.00;51.20;;;;;;4829250;29;20034;-89
2022/04/30 03:51:25;;;;;;;1.02;1.00;;;14.00;51.20;;;;;;4833753;29;20042;-89
2022/04/30 03:53:54;;;;;;;2.10;0.98;;;14.00;51.30;;;;;;4832917;29;20049;-89
2022/04/30 03:56:21;;;;;;;0.98;0.90;;;14.00;51.30;;;;;;4835926;29;20038;-88
2022/04/30 03:58:49;;;;;;;1.48;1.10;;;14.00;51.20;;;;;;4803178;29;20038;-89
2022/04/30 04:01:19;;;;;;;1.65;1.33;;;14.00;51.10;;;;;;4818055;29;20030;-86
2022/04/30 04:03:46;;;;;;;1.40;1.30;;;14.00;51.10;;;;;;4825536;29;20414;-86
2022/04/30 04:06:13;;;;;;;1.83;1.17;;;14.10;51.30;;;;;;4828602;29;20205;-86
2022/04/30 04:08:40;;;;;;;2.63;1.20;;;14.10;51.40;;;;;;4817951;29;20121;-86
2022/04/30 04:11:10;;;;;;;1.50;0.90;;;14.10;51.40;;;;;;4831519;29;20510;-85
2022/04/30 04:19:06;;;;;;;2.15;0.88;;;14.20;51.90;;;;;;4827070;29;20046;-86
2022/04/30 04:21:32;;;;;;;1.40;0.95;;;14.20;51.60;;;;;;4830059;29;20030;-86
2022/04/30 04:26:42;;;;;;;1.27;1.00;;;14.20;51.40;;;;;;4824322;29;20100;-86
2022/04/30 04:29:10;;;;;;;2.58;0.88;;;14.20;51.30;;;;;;4829511;29;20046;-85
2022/04/30 04:31:37;;;;;;;1.55;1.08;;;14.20;51.30;;;;;;4825442;29;20079;-86
2022/04/30 04:34:03;;;;;;;1.27;0.90;;;14.20;51.30;;;;;;4833814;29;20041;-85
2022/04/30 04:36:29;;;;;;;1.63;1.05;;;14.20;51.20;;;;;;4816049;29;20034;-85
2022/04/30 04:38:55;;;;;;;1.13;1.02;;;14.20;51.20;;;;;;4815314;29;20043;-86
2022/04/30 04:41:21;;;;;;;1.27;1.17;;;14.30;51.10;;;;;;4824134;29;20552;-86
2022/04/30 04:43:47;;;;;;;1.77;0.90;;;14.20;50.90;;;;;;4825482;29;20121;-87
2022/04/30 04:46:14;;;;;;;2.15;1.17;;;14.20;51.30;;;;;;4824536;29;20122;-87
2022/04/30 04:48:40;;;;;;;1.88;1.02;;;14.30;50.70;;;;;;4829210;29;20037;-86
2022/04/30 04:51:06;;;;;;;2.00;1.00;;;14.20;50.70;;;;;;4803640;29;20182;-90
2022/04/30 04:53:32;;;;;;;1.40;1.00;;;14.20;50.90;;;;;;4825547;29;20156;-89
2022/04/30 04:56:01;;;;;;;0.95;0.93;;;14.20;50.90;;;;;;4833119;29;20042;-88
2022/04/30 04:58:27;;;;;;;1.27;1.10;;;14.20;50.80;;;;;;4815863;29;20038;-90
2022/04/30 05:00:53;;;;;;;1.50;1.20;;;14.20;50.80;;;;;;4823448;29;20061;-88
2022/04/30 05:03:19;;;;;;;1.70;1.15;;;14.20;50.80;;;;;;4833571;29;20437;-88
2022/04/30 05:05:45;;;;;;;1.05;0.70;;;14.20;50.90;;;;;;4830017;29;20144;-87
2022/04/30 05:08:11;;;;;;;1.13;1.10;;;14.30;51.00;;;;;;4832655;29;20049;-91
2022/04/30 05:10:37;;;;;;;2.35;0.82;;;14.30;51.00;;;;;;4819156;29;20042;-85
2022/04/30 05:13:03;;;;;;;2.40;0.98;;;14.40;51.20;;;;;;4823584;29;20192;-85
2022/04/30 05:15:29;;;;;;;3.58;1.08;;;14.40;51.10;;;;;;4830055;29;20058;-86
2022/04/30 05:17:55;;;;;;;9.48;1.20;;;14.50;50.90;;;;;;4820333;29;20031;-82
2022/04/30 05:20:21;;;;;;;1.15;0.80;;;14.60;50.70;;;;;;4829909;29;20035;-80
2022/04/30 05:22:47;;;;;;;1.73;0.75;;;14.70;50.50;;;;;;4831981;29;20557;-86
2022/04/30 05:25:13;;;;;;;1.92;0.80;;;14.70;50.80;;;;;;4817877;29;20094;-84
2022/04/30 05:27:39;;;;;;;2.78;1.00;;;14.90;49.70;;;;;;4823729;29;20046;-87
2022/04/30 05:30:06;;;;;;;10.20;1.45;;;15.00;49.30;;;;;;4817865;29;20034;-90
2022/04/30 05:32:32;;;;;;;3.75;0.95;;;15.00;49.10;;;;;;4837106;29;20042;-85
2022/04/30 05:34:58;;;;;;;0.70;0.70;;;14.90;48.80;;;;;;4832361;29;20124;-86
2022/04/30 05:37:24;;;;;;;3.22;0.93;;;15.00;48.80;;;;;;4832060;29;20136;-89
2022/04/30 05:39:50;;;;;;;0.98;0.75;;;15.00;48.60;;;;;;4835772;29;20471;-86
2022/04/30 05:42:19;;;;;;;2.13;0.73;;;15.00;48.30;;;;;;4807908;29;20038;-86
2022/04/30 05:44:45;;;;;;;2.75;0.82;;;14.90;47.80;;;;;;4832666;29;20095;-81
2022/04/30 05:47:11;;;;;;;1.67;0.90;;;15.00;47.50;;;;;;4831106;29;20050;-82
2022/04/30 05:49:37;;;;;;;1.00;0.75;;;15.00;47.30;;;;;;4819168;29;20076;-88
2022/04/30 05:52:03;;;;;;;1.35;0.80;;;15.00;47.40;;;;;;4830719;29;20042;-87
2022/04/30 05:54:29;;;;;;;1.83;0.80;;;15.00;48.60;;;;;;4833360;29;20529;-88
2022/04/30 05:56:55;;;;;;;3.22;0.90;;;15.00;49.00;;;;;;4830385;29;20042;-87
2022/04/30 05:59:21;;;;;;;1.92;1.00;;;15.00;48.50;;;;;;4828331;29;20107;-89
2022/04/30 06:01:47;;;;;;;2.42;0.90;;;15.10;48.40;;;;;;4807618;29;20131;-85
2022/04/30 06:04:13;;;;;;;1.52;1.00;;;15.20;48.20;;;;;;4832531;29;20042;-83
2022/04/30 06:06:39;;;;;;;4.38;0.95;;;15.40;48.10;;;;;;4830665;29;20069;-84
2022/04/30 06:09:05;;;;;;;3.45;0.73;;;15.80;50.60;;;;;;4829161;29;20068;-86
2022/04/30 06:11:31;;;;;;;1.65;0.80;;;16.30;51.70;;;;;;4818130;29;20041;-86
2022/04/30 06:13:57;;;;;;;4.32;0.90;;;16.80;51.10;;;;;;4834032;29;20039;-85
2022/04/30 06:16:23;;;;;;;4.20;0.70;;;17.20;50.60;;;;;;4829929;29;20058;-82
2022/04/30 06:18:49;;;;;;;1.02;0.57;;;17.60;50.00;;;;;;4829876;29;20039;-86
2022/04/30 06:21:15;;;;;;;4.57;0.60;;;17.90;47.80;;;;;;4834856;29;20074;-85
2022/04/30 06:23:41;;;;;;;4.07;1.58;;;17.90;45.50;;;;;;4830369;29;20467;-84
2022/04/30 06:26:07;;;;;;;0.85;0.80;;;17.80;42.90;;;;;;4831427;29;20061;-84
2022/04/30 06:28:34;;;;;;;1.88;1.15;;;17.60;42.40;;;;;;4829879;29;20042;-83
2022/04/30 06:31:01;;;;;;;2.97;1.30;;;17.30;42.00;;;;;;4829198;29;20045;-82
2022/04/30 06:33:28;;;;;;;1.20;0.90;;;17.10;41.70;;;;;;4827430;29;20034;-86
2022/04/30 06:35:57;;;;;;;2.20;1.20;;;16.90;42.00;;;;;;4826993;29;20038;-85
2022/04/30 06:38:23;;;;;;;4.30;1.23;;;16.70;42.20;;;;;;4829042;29;20038;-85
2022/04/30 06:40:49;;;;;;;6.82;1.48;;;16.40;42.30;;;;;;4833273;29;20034;-91
2022/04/30 06:43:15;;;;;;;2.42;1.20;;;16.40;42.40;;;;;;4841473;29;20030;-89
2022/04/30 06:45:41;;;;;;;2.67;0.90;;;16.30;41.80;;;;;;4835081;29;20133;-88
2022/04/30 06:48:08;;;;;;;0.75;0.70;;;16.20;41.10;;;;;;4837723;29;20070;-90
2022/04/30 06:50:33;;;;;;;1.40;0.63;;;16.00;41.10;;;;;;4838803;29;20041;-91
2022/04/30 06:58:40;;;;;;;2.38;0.82;;;15.70;41.00;;;;;;4829926;29;20058;-86
2022/04/30 07:03:55;;;;;;;1.27;0.80;;;15.50;40.80;;;;;;4829109;29;20039;-88
2022/04/30 07:06:21;;;;;;;0.80;0.80;;;15.40;41.30;;;;;;4834031;29;20049;-84
2022/04/30 07:08:47;;;;;;;2.35;1.00;;;15.30;41.00;;;;;;4824606;29;20046;-87
2022/04/30 07:11:13;;;;;;;2.50;0.80;;;15.30;40.90;;;;;;4826681;29;20049;-85
2022/04/30 07:13:39;;;;;;;1.23;0.63;;;15.30;40.80;;;;;;4826388;29;20068;-85
2022/04/30 07:16:05;;;;;;;0.98;0.57;;;15.20;40.50;;;;;;4815127;29;20057;-84
2022/04/30 07:18:31;;;;;;;1.02;0.73;;;15.20;40.80;;;;;;4832981;29;20073;-86
2022/04/30 07:20:57;;;;;;;4.68;0.80;;;15.10;41.10;;;;;;4817467;29;20521;-86
2022/04/30 07:23:23;;;;;;;1.67;0.70;;;15.10;41.00;;;;;;4817808;29;20046;-85
2022/04/30 07:25:49;;;;;;;3.42;1.05;;;15.00;41.00;;;;;;4827498;29;20049;-86
2022/04/30 07:28:15;;;;;;;3.30;0.82;;;15.00;41.10;;;;;;4827033;29;20034;-86
2022/04/30 07:30:41;;;;;;;6.10;0.80;;;14.90;41.00;;;;;;4827231;29;20091;-84
2022/04/30 07:33:07;;;;;;;1.02;0.65;;;14.90;40.70;;;;;;4827978;29;20382;-85
2022/04/30 07:35:33;;;;;;;1.77;0.80;;;14.90;40.30;;;;;;4827692;29;20089;-92
2022/04/30 07:37:59;;;;;;;3.17;0.70;;;14.90;40.10;;;;;;4830285;29;20049;-84
2022/04/30 07:40:25;;;;;;;2.05;0.82;;;15.00;40.20;;;;;;4828558;29;20122;-87
2022/04/30 07:42:51;;;;;;;3.03;0.68;;;15.30;40.10;;;;;;4827766;29;20471;-89
2022/04/30 07:45:17;;;;;;;2.97;0.70;;;15.40;40.20;;;;;;4826879;29;20457;-85
2022/04/30 07:47:43;;;;;;;1.85;0.68;;;15.50;39.80;;;;;;4827666;29;20414;-85
2022/04/30 07:50:10;;;;;;;1.00;0.68;;;15.50;40.00;;;;;;4827962;29;20081;-82
2022/04/30 07:52:36;;;;;;;3.30;0.88;;;15.40;40.10;;;;;;4817114;29;20125;-80
2022/04/30 07:55:03;;;;;;;3.83;1.05;;;15.40;40.40;;;;;;4827550;29;20155;-81
2022/04/30 07:57:29;;;;;;;2.03;1.25;;;15.30;40.80;;;;;;4801730;29;20035;-82
2022/04/30 07:59:55;;;;;;;4.10;1.23;;;15.20;41.40;;;;;;4828870;29;20041;-83
2022/04/30 08:02:21;;;;;;;3.25;1.08;;;15.20;41.70;;;;;;4800734;29;20042;-82
2022/04/30 08:04:47;;;;;;;11.98;2.30;;;15.20;42.00;;;;;;4828358;29;20042;-80
2022/04/30 08:07:13;;;;;;;7.35;2.08;;;15.20;42.80;;;;;;4830190;29;20199;-82
2022/04/30 08:09:39;;;;;;;8.02;1.60;;;15.20;43.60;;;;;;4835800;29;20580;-81
2022/04/30 08:12:05;;;;;;;9.88;2.10;;;15.20;43.50;;;;;;4837023;29;20042;-95
2022/04/30 08:14:31;;;;;;;3.53;1.50;;;15.20;43.40;;;;;;4827666;29;20039;-89
2022/04/30 08:16:57;;;;;;;4.53;1.42;;;15.30;42.90;;;;;;4819255;29;20049;-86
2022/04/30 08:19:23;;;;;;;3.78;1.58;;;15.30;42.70;;;;;;4830043;29;20026;-83
2022/04/30 08:21:50;;;;;;;8.00;1.60;;;15.30;42.40;;;;;;4828467;29;20070;-80
2022/04/30 08:24:16;;;;;;;5.25;1.55;;;15.30;42.80;;;;;;4828569;29;20042;-81
2022/04/30 08:26:43;;;;;;;6.03;1.30;;;15.30;43.30;;;;;;4825176;29;20097;-80
2022/04/30 08:29:09;;;;;;;4.45;1.23;;;15.30;42.90;;;;;;4829946;29;20449;-86
2022/04/30 08:31:35;;;;;;;2.30;1.27;;;15.40;43.10;;;;;;4829817;29;20034;-79
2022/04/30 08:34:01;;;;;;;2.40;1.23;;;15.40;42.80;;;;;;4829821;29;20042;-80
2022/04/30 08:36:27;;;;;;;6.43;0.93;;;15.40;42.00;;;;;;4822369;29;20049;-80
2022/04/30 08:38:53;;;;;;;2.58;1.00;;;15.40;41.60;;;;;;4832804;29;20038;-92
2022/04/30 08:41:21;;;;;;;2.60;0.88;;;15.40;41.50;;;;;;4822801;29;20045;-87
2022/04/30 08:43:48;;;;;;;1.60;1.10;;;15.40;41.40;;;;;;4809863;29;20061;-92
2022/04/30 08:46:18;;;;;;;2.17;0.88;;;15.50;41.20;;;;;;4816854;29;20045;-85
2022/04/30 08:48:46;;;;;;;2.03;1.10;;;15.50;41.00;;;;;;4825241;29;20034;-89
2022/04/30 08:51:12;;;;;;;3.42;1.02;;;15.50;40.60;;;;;;4814804;29;20106;-90
2022/04/30 08:53:38;;;;;;;1.77;0.90;;;15.50;40.40;;;;;;4821216;29;20167;-88
2022/04/30 08:56:08;;;;;;;3.35;1.10;;;15.50;40.10;;;;;;4834970;29;20593;-95
2022/04/30 08:58:34;;;;;;;9.65;1.63;;;15.50;40.80;;;;;;4805977;29;20038;-93
2022/04/30 09:01:03;;;;;;;5.03;1.20;;;15.60;42.50;;;;;;4807803;29;20049;-92
2022/04/30 09:03:34;;;;;;;3.58;0.95;;;15.60;41.70;;;;;;4820197;29;20069;-93
2022/04/30 09:06:01;;;;;;;2.80;1.25;;;15.60;40.30;;;;;;4838082;29;20038;-94
2022/04/30 09:08:28;;;;;;;3.97;0.75;;;15.50;40.60;;;;;;4832961;29;20418;-94
2022/04/30 09:11:07;;;;;;;4.65;1.13;;;15.50;40.40;;;;;;4807950;29;20406;-93
2022/04/30 09:13:46;;;;;;;6.93;1.35;;;15.40;41.10;;;;;;4841425;29;20107;-94
2022/04/30 09:16:24;;;;;;;4.50;1.40;;;15.50;41.20;;;;;;4808317;29;20050;-93
2022/04/30 09:18:52;;;;;;;2.38;1.10;;;15.50;40.70;;;;;;4834769;29;20037;-95
2022/04/30 09:21:19;;;;;;;3.28;1.15;;;15.50;40.70;;;;;;4826745;29;20042;-94
2022/04/30 09:23:45;;;;;;;3.22;1.63;;;15.60;40.70;;;;;;4818690;29;20053;-93
2022/04/30 09:26:12;;;;;;;2.35;1.38;;;15.60;41.10;;;;;;4833311;29;20098;-93
2022/04/30 09:28:41;;;;;;;2.15;1.60;;;15.60;41.10;;;;;;4827185;29;20042;-93
2022/04/30 09:31:13;;;;;;;5.57;1.20;;;15.60;41.00;;;;;;4809544;29;20042;-94
2022/04/30 09:33:49;;;;;;;4.78;1.48;;;15.70;41.00;;;;;;4806801;29;20034;-94
2022/04/30 09:39:09;;;;;;;2.50;1.20;;;15.70;40.90;;;;;;4852731;29;20134;-92
2022/04/30 09:41:35;;;;;;;2.63;1.00;;;15.70;40.60;;;;;;4805344;29;20046;-92
2022/04/30 09:44:07;;;;;;;4.07;1.25;;;15.80;40.70;;;;;;4829554;29;20133;-91
2022/04/30 09:46:38;;;;;;;1.48;1.00;;;15.80;40.50;;;;;;4815441;29;20034;-93
2022/04/30 09:54:41;;;;;;;1.95;0.88;;;15.90;39.70;;;;;;4852276;29;20053;-94
2022/04/30 09:57:09;;;;;;;4.22;1.25;;;15.90;39.40;;;;;;4818630;29;20037;-93
2022/04/30 09:59:39;;;;;;;7.65;1.60;;;15.90;39.90;;;;;;4806129;29;20034;-91
2022/04/30 10:02:09;;;;;;;1.45;0.70;;;15.90;40.30;;;;;;4804059;29;20047;-93
2022/04/30 10:04:37;;;;;;;5.18;1.55;;;15.90;39.90;;;;;;4822151;29;20044;-95
2022/04/30 10:07:05;;;;;;;2.47;0.98;;;15.90;39.80;;;;;;4808004;29;20055;-94
2022/04/30 10:09:39;;;;;;;3.95;1.20;;;15.90;39.50;;;;;;4834488;29;20049;-93
2022/04/30 10:12:08;;;;;;;3.97;1.23;;;15.90;38.40;;;;;;4809915;29;20049;-91
2022/04/30 10:14:50;;;;;;;3.03;0.98;;;15.90;39.20;;;;;;4825744;29;20030;-95
2022/04/30 10:17:20;;;;;;;4.80;1.08;;;15.90;39.70;;;;;;4806632;29;20034;-94
2022/04/30 10:20:01;;;;;;;5.20;1.33;;;15.90;39.50;;;;;;4818287;29;20045;-92
2022/04/30 10:22:27;;;;;;;2.20;1.05;;;15.90;39.10;;;;;;4808580;29;20034;-93
2022/04/30 10:24:57;;;;;;;3.15;1.17;;;15.90;39.00;;;;;;4806466;29;20540;-93
2022/04/30 10:27:24;;;;;;;3.95;1.30;;;15.90;39.30;;;;;;4805926;29;20042;-94
2022/04/30 10:29:58;;;;;;;2.05;0.90;;;15.90;39.20;;;;;;4806394;29;20052;-93
2022/04/30 10:32:26;;;;;;;1.52;0.90;;;15.90;38.50;;;;;;4820770;29;20498;-93
2022/04/30 10:34:53;;;;;;;3.78;0.95;;;15.90;38.20;;;;;;4805434;29;20038;-94
2022/04/30 10:37:32;;;;;;;5.38;1.10;;;15.80;38.60;;;;;;4807132;29;20072;-92
2022/04/30 10:39:59;;;;;;;2.78;1.30;;;15.80;38.10;;;;;;4805865;29;20046;-92
2022/04/30 10:42:39;;;;;;;3.78;1.05;;;15.80;38.20;;;;;;4806718;29;20030;-94
2022/04/30 10:45:07;;;;;;;12.10;1.77;;;15.80;38.20;;;;;;4811661;29;20144;-93
2022/04/30 10:47:33;;;;;;;7.72;1.40;;;15.70;38.50;;;;;;4803165;29;20038;-94
2022/04/30 10:50:00;;;;;;;2.20;1.45;;;15.70;39.10;;;;;;4806192;29;20037;-92
2022/04/30 10:52:27;;;;;;;2.90;1.05;;;15.70;38.80;;;;;;4814328;29;20720;-93
2022/04/30 10:54:58;;;;;;;4.38;1.45;;;15.70;38.50;;;;;;4820034;29;20517;-94
2022/04/30 10:57:24;;;;;;;6.82;1.50;;;15.70;39.20;;;;;;4819990;29;20518;-94
2022/04/30 11:00:02;;;;;;;5.28;1.30;;;15.80;39.40;;;;;;4820856;29;20050;-91
2022/04/30 11:02:32;;;;;;;12.13;1.90;;;15.70;39.30;;;;;;4806564;29;20038;-94
2022/04/30 11:04:59;;;;;;;6.97;1.60;;;15.70;39.20;;;;;;4805658;29;20986;-94
2022/04/30 11:07:28;;;;;;;5.22;1.38;;;15.70;39.00;;;;;;4822233;29;20048;-95
2022/04/30 11:09:55;;;;;;;2.55;1.48;;;15.70;38.70;;;;;;4823294;29;20647;-94
2022/04/30 11:12:21;;;;;;;3.47;1.33;;;15.70;38.50;;;;;;4837939;29;20046;-92
2022/04/30 11:14:47;;;;;;;3.28;1.30;;;15.70;38.10;;;;;;4826113;29;20030;-92
2022/04/30 11:17:13;;;;;;;3.58;1.45;;;15.70;38.10;;;;;;4827279;29;20037;-95
2022/04/30 11:19:41;;;;;;;3.10;1.23;;;15.70;38.10;;;;;;4827646;29;20038;-95
2022/04/30 11:22:11;;;;;;;5.10;1.33;;;15.70;37.90;;;;;;4827725;29;20077;-94
2022/04/30 11:24:38;;;;;;;3.00;1.27;;;15.70;38.30;;;;;;4821090;29;20136;-92
2022/04/30 11:27:08;;;;;;;2.35;1.27;;;15.70;38.30;;;;;;4825351;29;20093;-95
2022/04/30 11:29:47;;;;;;;6.35;1.30;;;15.70;38.50;;;;;;4839622;29;20038;-94
2022/04/30 11:32:22;;;;;;;5.78;1.25;;;15.70;39.00;;;;;;4844861;29;20048;-90
2022/04/30 11:34:50;;;;;;;1.73;1.35;;;15.80;38.90;;;;;;4850316;29;20068;-92
2022/04/30 11:37:16;;;;;;;3.58;1.27;;;15.80;38.70;;;;;;4850301;29;20037;-91
2022/04/30 11:39:43;;;;;;;4.47;1.70;;;15.80;38.80;;;;;;4847921;29;20053;-91
2022/04/30 11:42:09;;;;;;;1.30;1.20;;;15.80;38.90;;;;;;4824322;29;20066;-94
2022/04/30 11:44:35;;;;;;;2.80;1.48;;;15.80;38.90;;;;;;4829073;29;20037;-94
2022/04/30 11:47:05;;;;;;;3.88;1.77;;;15.90;38.90;;;;;;4824580;29;20033;-93
2022/04/30 11:49:31;;;;;;;2.55;1.38;;;15.90;38.70;;;;;;4824847;29;20098;-92
2022/04/30 11:51:58;;;;;;;3.33;1.73;;;15.90;38.20;;;;;;4824440;29;20038;-93
2022/04/30 11:54:27;;;;;;;4.22;1.80;;;15.80;38.40;;;;;;4829609;29;20037;-93
2022/04/30 11:56:53;;;;;;;3.70;1.67;;;15.90;38.80;;;;;;4825673;29;20042;-92
2022/04/30 11:59:54;;;;;;;3.20;1.77;;;15.90;38.60;;;;;;4822828;29;21478;-92
2022/04/30 12:02:20;;;;;;;1.98;1.40;;;15.90;37.80;;;;;;4842546;29;20068;-94
2022/04/30 12:04:48;;;;;;;3.25;1.30;;;15.80;37.50;;;;;;4830242;29;20042;-94
2022/04/30 12:07:14;;;;;;;5.97;1.83;;;15.80;37.60;;;;;;4820569;29;20117;-93
2022/04/30 12:09:46;;;;;;;3.25;1.50;;;15.80;38.10;;;;;;4820393;29;20118;-93
2022/04/30 12:12:23;;;;;;;4.50;1.77;;;15.80;38.30;;;;;;4842369;29;20065;-92
2022/04/30 12:14:50;;;;;;;2.22;1.58;;;15.80;38.10;;;;;;4871585;29;20055;-94
2022/04/30 12:17:16;;;;;;;4.53;1.80;;;15.80;38.10;;;;;;4846015;29;20086;-92
2022/04/30 12:25:16;;;;;;;1.67;1.25;;;15.80;38.20;;;;;;4839252;29;20099;-92
2022/04/30 12:27:53;;;;;;;3.92;2.00;;;15.70;37.60;;;;;;4841196;29;20386;-93
2022/04/30 12:30:20;;;;;;;6.95;1.90;;;15.70;38.20;;;;;;4826048;29;20046;-94
2022/04/30 12:32:48;;;;;;;3.17;1.80;;;15.80;38.30;;;;;;4825875;29;20056;-92
2022/04/30 12:35:25;;;;;;;4.78;1.80;;;15.80;38.30;;;;;;4825127;29;20041;-93
2022/04/30 12:38:09;;;;;;;2.88;1.27;;;15.70;37.90;;;;;;4837447;29;20121;-94
2022/04/30 12:40:37;;;;;;;2.55;1.45;;;15.70;38.10;;;;;;4806015;29;20040;-93
2022/04/30 12:43:04;;;;;;;2.58;1.30;;;15.60;37.90;;;;;;4836252;29;20506;-92
2022/04/30 12:45:33;;;;;;;8.35;2.10;;;15.50;37.90;;;;;;4809018;29;20050;-93
2022/04/30 12:48:01;;;;;;;4.07;1.60;;;15.40;38.20;;;;;;4825633;29;20063;-92
2022/04/30 12:50:32;;;;;;;4.38;1.70;;;15.40;38.80;;;;;;4836136;29;20034;-93
2022/04/30 12:52:59;;;;;;;2.20;1.42;;;15.40;38.90;;;;;;4805023;29;20133;-93
2022/04/30 12:55:25;;;;;;;3.17;1.30;;;15.40;39.30;;;;;;4808788;29;20179;-94
2022/04/30 12:58:00;;;;;;;4.13;1.30;;;15.40;39.10;;;;;;4819877;29;20136;-95
2022/04/30 13:00:33;;;;;;;3.08;1.70;;;15.40;38.80;;;;;;4825292;29;20054;-95
2022/04/30 13:03:00;;;;;;;4.15;1.73;;;15.50;39.00;;;;;;4821437;29;20061;-93
2022/04/30 13:05:27;;;;;;;2.95;1.40;;;15.50;38.90;;;;;;4816454;29;20046;-92
2022/04/30 13:07:53;;;;;;;2.83;1.48;;;15.50;38.90;;;;;;4816239;29;20034;-93
2022/04/30 13:15:49;;;;;;;2.17;1.52;;;15.50;39.00;;;;;;4815787;29;20042;-96
2022/04/30 13:18:16;;;;;;;2.92;1.40;;;15.50;38.90;;;;;;4804055;29;20042;-93
2022/04/30 13:20:42;;;;;;;2.60;1.45;;;15.40;38.90;;;;;;4816999;29;20573;-93
2022/04/30 13:23:12;;;;;;;4.22;1.90;;;15.40;39.00;;;;;;4808314;29;20042;-93
2022/04/30 13:25:41;;;;;;;2.88;1.73;;;15.40;39.00;;;;;;4810770;29;20037;-94
2022/04/30 13:28:10;;;;;;;3.78;1.90;;;15.40;39.20;;;;;;4807664;29;20032;-93
2022/04/30 13:30:36;;;;;;;2.72;2.13;;;15.40;39.30;;;;;;4826486;29;20454;-94
2022/04/30 13:33:05;;;;;;;2.78;1.63;;;15.40;39.30;;;;;;4820960;29;20141;-94
2022/04/30 13:35:31;;;;;;;7.35;1.65;;;15.40;39.40;;;;;;4809251;29;20049;-94
2022/04/30 13:37:58;;;;;;;3.75;1.70;;;15.40;39.70;;;;;;4828434;29;20038;-95